sensor_id;sensor_type;location;lat;lon;timestamp;P1;durP1;ratioP1;P2;durP2;ratioP2
45236;SDS011;30973;51.442;3.580;2023-12-04T00:00:03;8.18;;;5.63;;
45236;SDS011;30973;51.442;3.580;2023-12-04T00:02:37;9.98;;;4.82;;
45236;SDS011;30973;51.442;3.580;2023-12-04T00:05:05;9.32;;;5.40;;
45236;SDS011;30973;51.442;3.580;2023-12-04T00:07:33;6.50;;;4.47;;
45236;SDS011;30973;51.442;3.580;2023-12-04T00:10:00;8.13;;;4.90;;
45236;SDS011;30973;51.442;3.580;2023-12-04T00:12:28;8.27;;;5.28;;
45236;SDS011;30973;51.442;3.580;2023-12-04T00:14:56;9.10;;;5.00;;
45236;SDS011;30973;51.442;3.580;2023-12-04T00:17:23;7.45;;;4.60;;
45236;SDS011;30973;51.442;3.580;2023-12-04T00:19:51;9.65;;;5.47;;
45236;SDS011;30973;51.442;3.580;2023-12-04T00:22:18;8.77;;;5.70;;
45236;SDS011;30973;51.442;3.580;2023-12-04T00:24:46;7.15;;;4.63;;
45236;SDS011;30973;51.442;3.580;2023-12-04T00:27:13;7.75;;;4.72;;
45236;SDS011;30973;51.442;3.580;2023-12-04T00:29:41;7.72;;;4.90;;
45236;SDS011;30973;51.442;3.580;2023-12-04T00:32:08;9.95;;;5.28;;
45236;SDS011;30973;51.442;3.580;2023-12-04T00:34:36;7.55;;;4.88;;
45236;SDS011;30973;51.442;3.580;2023-12-04T00:37:04;8.32;;;5.40;;
45236;SDS011;30973;51.442;3.580;2023-12-04T00:39:31;11.38;;;4.88;;
45236;SDS011;30973;51.442;3.580;2023-12-04T00:41:59;7.55;;;4.45;;
45236;SDS011;30973;51.442;3.580;2023-12-04T00:44:26;7.78;;;4.97;;
45236;SDS011;30973;51.442;3.580;2023-12-04T00:46:54;8.63;;;4.65;;
45236;SDS011;30973;51.442;3.580;2023-12-04T00:49:21;7.85;;;4.93;;
45236;SDS011;30973;51.442;3.580;2023-12-04T00:51:49;7.70;;;4.65;;
45236;SDS011;30973;51.442;3.580;2023-12-04T00:54:17;8.38;;;4.72;;
45236;SDS011;30973;51.442;3.580;2023-12-04T00:56:44;8.38;;;5.25;;
45236;SDS011;30973;51.442;3.580;2023-12-04T00:59:11;7.70;;;4.70;;
45236;SDS011;30973;51.442;3.580;2023-12-04T01:01:39;8.48;;;4.88;;
45236;SDS011;30973;51.442;3.580;2023-12-04T01:04:06;9.23;;;5.47;;
45236;SDS011;30973;51.442;3.580;2023-12-04T01:06:34;9.68;;;5.55;;
45236;SDS011;30973;51.442;3.580;2023-12-04T01:09:02;9.25;;;4.93;;
45236;SDS011;30973;51.442;3.580;2023-12-04T01:11:29;7.60;;;4.65;;
45236;SDS011;30973;51.442;3.580;2023-12-04T01:13:58;7.75;;;4.53;;
45236;SDS011;30973;51.442;3.580;2023-12-04T01:16:25;8.43;;;5.07;;
45236;SDS011;30973;51.442;3.580;2023-12-04T01:18:53;8.05;;;5.07;;
45236;SDS011;30973;51.442;3.580;2023-12-04T01:21:21;6.82;;;4.75;;
45236;SDS011;30973;51.442;3.580;2023-12-04T01:23:49;8.82;;;5.05;;
45236;SDS011;30973;51.442;3.580;2023-12-04T01:26:16;10.43;;;4.72;;
45236;SDS011;30973;51.442;3.580;2023-12-04T01:28:44;6.95;;;4.82;;
45236;SDS011;30973;51.442;3.580;2023-12-04T01:31:11;7.75;;;5.07;;
45236;SDS011;30973;51.442;3.580;2023-12-04T01:33:39;6.68;;;4.07;;
45236;SDS011;30973;51.442;3.580;2023-12-04T01:36:06;8.25;;;4.85;;
45236;SDS011;30973;51.442;3.580;2023-12-04T01:38:34;7.85;;;4.53;;
45236;SDS011;30973;51.442;3.580;2023-12-04T01:41:01;9.70;;;5.10;;
45236;SDS011;30973;51.442;3.580;2023-12-04T01:43:29;7.72;;;5.15;;
45236;SDS011;30973;51.442;3.580;2023-12-04T01:45:56;9.93;;;5.05;;
45236;SDS011;30973;51.442;3.580;2023-12-04T01:48:24;8.25;;;4.97;;
45236;SDS011;30973;51.442;3.580;2023-12-04T01:50:52;8.20;;;5.55;;
45236;SDS011;30973;51.442;3.580;2023-12-04T01:53:20;7.57;;;4.43;;
45236;SDS011;30973;51.442;3.580;2023-12-04T01:55:47;8.10;;;4.18;;
45236;SDS011;30973;51.442;3.580;2023-12-04T01:58:16;7.65;;;4.85;;
45236;SDS011;30973;51.442;3.580;2023-12-04T02:00:46;8.50;;;4.20;;
45236;SDS011;30973;51.442;3.580;2023-12-04T02:03:14;6.85;;;4.47;;
45236;SDS011;30973;51.442;3.580;2023-12-04T02:05:43;6.43;;;4.10;;
45236;SDS011;30973;51.442;3.580;2023-12-04T02:08:11;8.15;;;4.50;;
45236;SDS011;30973;51.442;3.580;2023-12-04T02:10:38;7.82;;;5.03;;
45236;SDS011;30973;51.442;3.580;2023-12-04T02:13:06;8.38;;;4.97;;
45236;SDS011;30973;51.442;3.580;2023-12-04T02:15:33;8.30;;;4.65;;
45236;SDS011;30973;51.442;3.580;2023-12-04T02:18:02;9.77;;;4.85;;
45236;SDS011;30973;51.442;3.580;2023-12-04T02:20:31;7.40;;;4.40;;
45236;SDS011;30973;51.442;3.580;2023-12-04T02:23:03;7.90;;;4.38;;
45236;SDS011;30973;51.442;3.580;2023-12-04T02:25:30;6.93;;;4.45;;
45236;SDS011;30973;51.442;3.580;2023-12-04T02:28:06;10.07;;;5.45;;
45236;SDS011;30973;51.442;3.580;2023-12-04T02:30:35;6.40;;;4.53;;
45236;SDS011;30973;51.442;3.580;2023-12-04T02:33:04;6.65;;;3.72;;
45236;SDS011;30973;51.442;3.580;2023-12-04T02:35:33;6.75;;;4.40;;
45236;SDS011;30973;51.442;3.580;2023-12-04T02:38:01;5.70;;;3.83;;
45236;SDS011;30973;51.442;3.580;2023-12-04T02:40:29;6.38;;;4.00;;
45236;SDS011;30973;51.442;3.580;2023-12-04T02:42:57;8.23;;;4.38;;
45236;SDS011;30973;51.442;3.580;2023-12-04T02:45:24;5.60;;;3.75;;
45236;SDS011;30973;51.442;3.580;2023-12-04T02:47:52;6.25;;;4.00;;
45236;SDS011;30973;51.442;3.580;2023-12-04T02:50:20;5.85;;;3.80;;
45236;SDS011;30973;51.442;3.580;2023-12-04T02:52:47;6.22;;;4.30;;
45236;SDS011;30973;51.442;3.580;2023-12-04T02:55:15;7.05;;;4.00;;
45236;SDS011;30973;51.442;3.580;2023-12-04T02:57:42;6.65;;;3.58;;
45236;SDS011;30973;51.442;3.580;2023-12-04T03:00:10;6.72;;;4.15;;
45236;SDS011;30973;51.442;3.580;2023-12-04T03:02:38;9.25;;;4.38;;
45236;SDS011;30973;51.442;3.580;2023-12-04T03:05:05;9.05;;;4.13;;
45236;SDS011;30973;51.442;3.580;2023-12-04T03:07:33;7.13;;;4.50;;
45236;SDS011;30973;51.442;3.580;2023-12-04T03:10:00;8.55;;;4.75;;
45236;SDS011;30973;51.442;3.580;2023-12-04T03:12:28;7.93;;;4.30;;
45236;SDS011;30973;51.442;3.580;2023-12-04T03:14:55;6.70;;;4.22;;
45236;SDS011;30973;51.442;3.580;2023-12-04T03:17:23;6.70;;;3.95;;
45236;SDS011;30973;51.442;3.580;2023-12-04T03:19:50;9.15;;;3.97;;
45236;SDS011;30973;51.442;3.580;2023-12-04T03:22:18;7.72;;;3.97;;
45236;SDS011;30973;51.442;3.580;2023-12-04T03:24:45;9.23;;;4.38;;
45236;SDS011;30973;51.442;3.580;2023-12-04T03:27:13;8.02;;;4.55;;
45236;SDS011;30973;51.442;3.580;2023-12-04T03:29:40;7.00;;;4.22;;
45236;SDS011;30973;51.442;3.580;2023-12-04T03:32:08;6.93;;;4.05;;
45236;SDS011;30973;51.442;3.580;2023-12-04T03:34:36;6.38;;;4.00;;
45236;SDS011;30973;51.442;3.580;2023-12-04T03:37:03;6.53;;;4.00;;
45236;SDS011;30973;51.442;3.580;2023-12-04T03:39:31;7.65;;;4.32;;
45236;SDS011;30973;51.442;3.580;2023-12-04T03:41:58;7.18;;;3.65;;
45236;SDS011;30973;51.442;3.580;2023-12-04T03:44:26;7.70;;;4.00;;
45236;SDS011;30973;51.442;3.580;2023-12-04T03:46:53;6.78;;;3.70;;
45236;SDS011;30973;51.442;3.580;2023-12-04T03:49:21;8.40;;;4.25;;
45236;SDS011;30973;51.442;3.580;2023-12-04T03:51:48;7.22;;;4.10;;
45236;SDS011;30973;51.442;3.580;2023-12-04T03:54:15;7.78;;;4.13;;
45236;SDS011;30973;51.442;3.580;2023-12-04T03:56:43;8.95;;;4.85;;
45236;SDS011;30973;51.442;3.580;2023-12-04T03:59:11;8.38;;;4.63;;
45236;SDS011;30973;51.442;3.580;2023-12-04T04:01:39;9.45;;;4.35;;
45236;SDS011;30973;51.442;3.580;2023-12-04T04:04:06;7.55;;;4.38;;
45236;SDS011;30973;51.442;3.580;2023-12-04T04:06:34;9.05;;;4.78;;
45236;SDS011;30973;51.442;3.580;2023-12-04T04:09:01;8.23;;;4.80;;
45236;SDS011;30973;51.442;3.580;2023-12-04T04:11:29;7.47;;;4.47;;
45236;SDS011;30973;51.442;3.580;2023-12-04T04:13:57;10.98;;;4.55;;
45236;SDS011;30973;51.442;3.580;2023-12-04T04:16:27;7.60;;;4.35;;
45236;SDS011;30973;51.442;3.580;2023-12-04T04:18:54;8.80;;;5.32;;
45236;SDS011;30973;51.442;3.580;2023-12-04T04:21:22;7.57;;;4.50;;
45236;SDS011;30973;51.442;3.580;2023-12-04T04:23:49;6.32;;;4.03;;
45236;SDS011;30973;51.442;3.580;2023-12-04T04:26:17;5.50;;;3.78;;
45236;SDS011;30973;51.442;3.580;2023-12-04T04:28:44;6.97;;;3.80;;
45236;SDS011;30973;51.442;3.580;2023-12-04T04:31:11;7.15;;;4.05;;
45236;SDS011;30973;51.442;3.580;2023-12-04T04:33:39;8.32;;;4.22;;
45236;SDS011;30973;51.442;3.580;2023-12-04T04:36:08;7.13;;;3.65;;
45236;SDS011;30973;51.442;3.580;2023-12-04T04:38:36;7.05;;;4.03;;
45236;SDS011;30973;51.442;3.580;2023-12-04T04:41:03;5.60;;;3.58;;
45236;SDS011;30973;51.442;3.580;2023-12-04T04:43:31;7.13;;;4.00;;
45236;SDS011;30973;51.442;3.580;2023-12-04T04:45:59;5.72;;;3.75;;
45236;SDS011;30973;51.442;3.580;2023-12-04T04:48:26;8.20;;;4.30;;
45236;SDS011;30973;51.442;3.580;2023-12-04T04:50:54;6.55;;;3.85;;
45236;SDS011;30973;51.442;3.580;2023-12-04T04:53:21;6.22;;;3.67;;
45236;SDS011;30973;51.442;3.580;2023-12-04T04:55:48;7.22;;;3.45;;
45236;SDS011;30973;51.442;3.580;2023-12-04T04:58:16;6.03;;;3.67;;
45236;SDS011;30973;51.442;3.580;2023-12-04T05:00:44;7.82;;;3.58;;
45236;SDS011;30973;51.442;3.580;2023-12-04T05:03:12;6.93;;;3.05;;
45236;SDS011;30973;51.442;3.580;2023-12-04T05:05:39;5.60;;;3.25;;
45236;SDS011;30973;51.442;3.580;2023-12-04T05:08:07;5.60;;;3.08;;
45236;SDS011;30973;51.442;3.580;2023-12-04T05:10:34;5.70;;;3.60;;
45236;SDS011;30973;51.442;3.580;2023-12-04T05:13:02;7.55;;;3.97;;
45236;SDS011;30973;51.442;3.580;2023-12-04T05:15:29;5.32;;;3.13;;
45236;SDS011;30973;51.442;3.580;2023-12-04T05:17:57;6.60;;;3.28;;
45236;SDS011;30973;51.442;3.580;2023-12-04T05:20:25;6.30;;;3.47;;
45236;SDS011;30973;51.442;3.580;2023-12-04T05:22:52;6.70;;;3.40;;
45236;SDS011;30973;51.442;3.580;2023-12-04T05:25:20;7.20;;;3.38;;
45236;SDS011;30973;51.442;3.580;2023-12-04T05:27:47;5.95;;;3.60;;
45236;SDS011;30973;51.442;3.580;2023-12-04T05:30:15;5.75;;;3.33;;
45236;SDS011;30973;51.442;3.580;2023-12-04T05:32:43;7.05;;;3.33;;
45236;SDS011;30973;51.442;3.580;2023-12-04T05:35:10;6.45;;;3.50;;
45236;SDS011;30973;51.442;3.580;2023-12-04T05:37:38;4.97;;;2.80;;
45236;SDS011;30973;51.442;3.580;2023-12-04T05:40:05;5.72;;;3.42;;
45236;SDS011;30973;51.442;3.580;2023-12-04T05:42:33;5.03;;;3.03;;
45236;SDS011;30973;51.442;3.580;2023-12-04T05:45:01;5.47;;;3.22;;
45236;SDS011;30973;51.442;3.580;2023-12-04T05:47:28;6.28;;;3.58;;
45236;SDS011;30973;51.442;3.580;2023-12-04T05:49:56;4.80;;;3.08;;
45236;SDS011;30973;51.442;3.580;2023-12-04T05:52:23;9.50;;;3.88;;
45236;SDS011;30973;51.442;3.580;2023-12-04T05:54:50;6.45;;;3.72;;
45236;SDS011;30973;51.442;3.580;2023-12-04T05:57:18;9.02;;;4.57;;
45236;SDS011;30973;51.442;3.580;2023-12-04T05:59:45;4.70;;;3.00;;
45236;SDS011;30973;51.442;3.580;2023-12-04T06:02:13;6.18;;;3.53;;
45236;SDS011;30973;51.442;3.580;2023-12-04T06:04:42;6.47;;;3.20;;
45236;SDS011;30973;51.442;3.580;2023-12-04T06:07:09;5.13;;;3.45;;
45236;SDS011;30973;51.442;3.580;2023-12-04T06:09:36;8.45;;;3.30;;
45236;SDS011;30973;51.442;3.580;2023-12-04T06:12:04;6.38;;;3.60;;
45236;SDS011;30973;51.442;3.580;2023-12-04T06:14:34;4.63;;;2.83;;
45236;SDS011;30973;51.442;3.580;2023-12-04T06:17:03;5.85;;;3.25;;
45236;SDS011;30973;51.442;3.580;2023-12-04T06:19:32;5.72;;;3.28;;
45236;SDS011;30973;51.442;3.580;2023-12-04T06:21:59;5.93;;;3.45;;
45236;SDS011;30973;51.442;3.580;2023-12-04T06:24:27;8.05;;;3.15;;
45236;SDS011;30973;51.442;3.580;2023-12-04T06:26:55;5.72;;;3.00;;
45236;SDS011;30973;51.442;3.580;2023-12-04T06:29:24;5.78;;;3.20;;
45236;SDS011;30973;51.442;3.580;2023-12-04T06:31:51;5.32;;;3.10;;
45236;SDS011;30973;51.442;3.580;2023-12-04T06:34:19;6.03;;;3.35;;
45236;SDS011;30973;51.442;3.580;2023-12-04T06:36:47;4.82;;;2.92;;
45236;SDS011;30973;51.442;3.580;2023-12-04T06:39:14;7.63;;;2.78;;
45236;SDS011;30973;51.442;3.580;2023-12-04T06:41:44;4.28;;;2.70;;
45236;SDS011;30973;51.442;3.580;2023-12-04T06:44:13;5.22;;;3.30;;
45236;SDS011;30973;51.442;3.580;2023-12-04T06:46:40;4.25;;;2.70;;
45236;SDS011;30973;51.442;3.580;2023-12-04T06:49:08;4.30;;;2.72;;
45236;SDS011;30973;51.442;3.580;2023-12-04T06:51:36;11.45;;;2.92;;
45236;SDS011;30973;51.442;3.580;2023-12-04T06:54:04;4.95;;;3.10;;
45236;SDS011;30973;51.442;3.580;2023-12-04T06:56:31;5.88;;;3.20;;
45236;SDS011;30973;51.442;3.580;2023-12-04T06:58:59;5.85;;;3.13;;
45236;SDS011;30973;51.442;3.580;2023-12-04T07:01:26;4.88;;;2.70;;
45236;SDS011;30973;51.442;3.580;2023-12-04T07:03:54;6.68;;;2.92;;
45236;SDS011;30973;51.442;3.580;2023-12-04T07:06:21;4.70;;;3.13;;
45236;SDS011;30973;51.442;3.580;2023-12-04T07:08:49;7.35;;;2.97;;
45236;SDS011;30973;51.442;3.580;2023-12-04T07:11:16;5.85;;;2.78;;
45236;SDS011;30973;51.442;3.580;2023-12-04T07:13:43;4.70;;;2.80;;
45236;SDS011;30973;51.442;3.580;2023-12-04T07:16:11;4.15;;;2.38;;
45236;SDS011;30973;51.442;3.580;2023-12-04T07:18:39;3.67;;;2.53;;
45236;SDS011;30973;51.442;3.580;2023-12-04T07:21:06;4.72;;;2.28;;
45236;SDS011;30973;51.442;3.580;2023-12-04T07:23:34;4.57;;;2.67;;
45236;SDS011;30973;51.442;3.580;2023-12-04T07:26:01;5.40;;;2.67;;
45236;SDS011;30973;51.442;3.580;2023-12-04T07:28:30;4.43;;;2.97;;
45236;SDS011;30973;51.442;3.580;2023-12-04T07:30:57;5.57;;;2.50;;
45236;SDS011;30973;51.442;3.580;2023-12-04T07:33:31;3.92;;;2.47;;
45236;SDS011;30973;51.442;3.580;2023-12-04T07:35:59;4.57;;;2.60;;
45236;SDS011;30973;51.442;3.580;2023-12-04T07:38:26;5.68;;;2.65;;
45236;SDS011;30973;51.442;3.580;2023-12-04T07:40:54;6.22;;;2.85;;
45236;SDS011;30973;51.442;3.580;2023-12-04T07:43:22;7.85;;;2.90;;
45236;SDS011;30973;51.442;3.580;2023-12-04T07:45:49;8.32;;;2.90;;
45236;SDS011;30973;51.442;3.580;2023-12-04T07:48:17;5.30;;;2.95;;
45236;SDS011;30973;51.442;3.580;2023-12-04T07:50:45;5.88;;;3.00;;
45236;SDS011;30973;51.442;3.580;2023-12-04T07:53:13;4.55;;;3.00;;
45236;SDS011;30973;51.442;3.580;2023-12-04T07:55:40;4.97;;;3.00;;
45236;SDS011;30973;51.442;3.580;2023-12-04T07:58:08;4.30;;;2.50;;
45236;SDS011;30973;51.442;3.580;2023-12-04T08:00:35;4.13;;;2.90;;
45236;SDS011;30973;51.442;3.580;2023-12-04T08:03:03;4.85;;;3.00;;
45236;SDS011;30973;51.442;3.580;2023-12-04T08:05:30;4.30;;;3.00;;
45236;SDS011;30973;51.442;3.580;2023-12-04T08:07:58;4.88;;;3.20;;
45236;SDS011;30973;51.442;3.580;2023-12-04T08:10:26;6.63;;;3.75;;
45236;SDS011;30973;51.442;3.580;2023-12-04T08:12:54;4.25;;;2.88;;
45236;SDS011;30973;51.442;3.580;2023-12-04T08:15:21;5.72;;;2.75;;
45236;SDS011;30973;51.442;3.580;2023-12-04T08:17:49;7.00;;;2.92;;
45236;SDS011;30973;51.442;3.580;2023-12-04T08:20:17;6.65;;;3.10;;
45236;SDS011;30973;51.442;3.580;2023-12-04T08:23:01;7.45;;;3.83;;
45236;SDS011;30973;51.442;3.580;2023-12-04T08:25:29;5.15;;;3.40;;
45236;SDS011;30973;51.442;3.580;2023-12-04T08:27:58;7.05;;;3.90;;
45236;SDS011;30973;51.442;3.580;2023-12-04T08:30:26;4.65;;;3.33;;
45236;SDS011;30973;51.442;3.580;2023-12-04T08:32:54;6.45;;;3.22;;
45236;SDS011;30973;51.442;3.580;2023-12-04T08:35:21;4.47;;;2.97;;
45236;SDS011;30973;51.442;3.580;2023-12-04T08:37:49;6.78;;;3.50;;
45236;SDS011;30973;51.442;3.580;2023-12-04T08:40:17;6.82;;;3.47;;
45236;SDS011;30973;51.442;3.580;2023-12-04T08:42:45;8.35;;;3.13;;
45236;SDS011;30973;51.442;3.580;2023-12-04T08:45:12;5.40;;;3.30;;
45236;SDS011;30973;51.442;3.580;2023-12-04T08:47:42;4.68;;;2.95;;
45236;SDS011;30973;51.442;3.580;2023-12-04T08:50:10;4.55;;;3.00;;
45236;SDS011;30973;51.442;3.580;2023-12-04T08:52:38;4.50;;;2.75;;
45236;SDS011;30973;51.442;3.580;2023-12-04T08:55:09;4.43;;;3.30;;
45236;SDS011;30973;51.442;3.580;2023-12-04T08:57:38;6.22;;;2.60;;
45236;SDS011;30973;51.442;3.580;2023-12-04T09:00:06;7.53;;;3.65;;
45236;SDS011;30973;51.442;3.580;2023-12-04T09:02:35;4.05;;;2.88;;
45236;SDS011;30973;51.442;3.580;2023-12-04T09:05:12;5.88;;;3.10;;
45236;SDS011;30973;51.442;3.580;2023-12-04T09:07:39;5.65;;;3.05;;
45236;SDS011;30973;51.442;3.580;2023-12-04T09:10:27;6.32;;;2.97;;
45236;SDS011;30973;51.442;3.580;2023-12-04T09:13:15;5.45;;;2.90;;
45236;SDS011;30973;51.442;3.580;2023-12-04T09:15:42;5.05;;;2.88;;
45236;SDS011;30973;51.442;3.580;2023-12-04T09:18:10;5.93;;;3.22;;
45236;SDS011;30973;51.442;3.580;2023-12-04T09:20:37;4.63;;;3.05;;
45236;SDS011;30973;51.442;3.580;2023-12-04T09:23:05;4.90;;;2.80;;
45236;SDS011;30973;51.442;3.580;2023-12-04T09:25:35;5.82;;;3.38;;
45236;SDS011;30973;51.442;3.580;2023-12-04T09:28:03;4.25;;;3.13;;
45236;SDS011;30973;51.442;3.580;2023-12-04T09:30:30;5.43;;;2.97;;
45236;SDS011;30973;51.442;3.580;2023-12-04T09:32:58;6.13;;;3.28;;
45236;SDS011;30973;51.442;3.580;2023-12-04T09:35:25;5.78;;;3.33;;
45236;SDS011;30973;51.442;3.580;2023-12-04T09:37:53;6.78;;;3.45;;
45236;SDS011;30973;51.442;3.580;2023-12-04T09:40:20;5.72;;;3.50;;
45236;SDS011;30973;51.442;3.580;2023-12-04T09:42:48;6.07;;;3.72;;
45236;SDS011;30973;51.442;3.580;2023-12-04T09:45:15;5.40;;;3.60;;
45236;SDS011;30973;51.442;3.580;2023-12-04T09:47:47;5.43;;;3.70;;
45236;SDS011;30973;51.442;3.580;2023-12-04T09:50:16;6.47;;;3.70;;
45236;SDS011;30973;51.442;3.580;2023-12-04T09:52:48;5.38;;;3.60;;
45236;SDS011;30973;51.442;3.580;2023-12-04T09:55:17;5.05;;;3.70;;
45236;SDS011;30973;51.442;3.580;2023-12-04T09:57:44;11.25;;;3.70;;
45236;SDS011;30973;51.442;3.580;2023-12-04T10:00:15;7.20;;;3.72;;
45236;SDS011;30973;51.442;3.580;2023-12-04T10:02:43;5.20;;;3.38;;
45236;SDS011;30973;51.442;3.580;2023-12-04T10:05:10;6.18;;;3.75;;
45236;SDS011;30973;51.442;3.580;2023-12-04T10:07:38;6.70;;;3.78;;
45236;SDS011;30973;51.442;3.580;2023-12-04T10:10:08;8.85;;;3.95;;
45236;SDS011;30973;51.442;3.580;2023-12-04T10:12:35;6.38;;;3.30;;
45236;SDS011;30973;51.442;3.580;2023-12-04T10:15:04;7.68;;;3.60;;
45236;SDS011;30973;51.442;3.580;2023-12-04T10:17:34;4.68;;;3.30;;
45236;SDS011;30973;51.442;3.580;2023-12-04T10:20:11;4.10;;;3.20;;
45236;SDS011;30973;51.442;3.580;2023-12-04T10:22:39;6.45;;;3.50;;
45236;SDS011;30973;51.442;3.580;2023-12-04T10:25:14;6.32;;;3.83;;
45236;SDS011;30973;51.442;3.580;2023-12-04T10:27:42;6.97;;;3.53;;
45236;SDS011;30973;51.442;3.580;2023-12-04T10:30:10;6.70;;;3.50;;
45236;SDS011;30973;51.442;3.580;2023-12-04T10:32:49;6.18;;;3.58;;
45236;SDS011;30973;51.442;3.580;2023-12-04T10:35:20;4.45;;;3.30;;
45236;SDS011;30973;51.442;3.580;2023-12-04T10:37:52;4.65;;;2.85;;
45236;SDS011;30973;51.442;3.580;2023-12-04T10:40:24;6.30;;;3.58;;
45236;SDS011;30973;51.442;3.580;2023-12-04T10:43:09;8.20;;;3.67;;
45236;SDS011;30973;51.442;3.580;2023-12-04T10:45:37;6.35;;;3.67;;
45236;SDS011;30973;51.442;3.580;2023-12-04T10:48:06;4.88;;;3.80;;
45236;SDS011;30973;51.442;3.580;2023-12-04T10:50:34;6.80;;;3.55;;
45236;SDS011;30973;51.442;3.580;2023-12-04T10:53:01;6.90;;;3.53;;
45236;SDS011;30973;51.442;3.580;2023-12-04T10:55:30;4.80;;;3.60;;
45236;SDS011;30973;51.442;3.580;2023-12-04T10:57:59;5.60;;;3.65;;
45236;SDS011;30973;51.442;3.580;2023-12-04T11:00:27;7.00;;;3.58;;
45236;SDS011;30973;51.442;3.580;2023-12-04T11:02:55;5.10;;;3.55;;
45236;SDS011;30973;51.442;3.580;2023-12-04T11:05:23;5.03;;;3.65;;
45236;SDS011;30973;51.442;3.580;2023-12-04T11:07:53;5.75;;;3.03;;
45236;SDS011;30973;51.442;3.580;2023-12-04T11:10:45;6.50;;;3.65;;
45236;SDS011;30973;51.442;3.580;2023-12-04T11:14:02;4.90;;;3.30;;
45236;SDS011;30973;51.442;3.580;2023-12-04T11:16:12;6.22;;;3.25;;
45236;SDS011;30973;51.442;3.580;2023-12-04T11:18:42;6.97;;;3.83;;
45236;SDS011;30973;51.442;3.580;2023-12-04T11:21:11;6.00;;;3.65;;
45236;SDS011;30973;51.442;3.580;2023-12-04T11:23:39;4.18;;;2.80;;
45236;SDS011;30973;51.442;3.580;2023-12-04T11:26:07;4.95;;;3.05;;
45236;SDS011;30973;51.442;3.580;2023-12-04T11:28:34;5.88;;;3.80;;
45236;SDS011;30973;51.442;3.580;2023-12-04T11:31:05;6.28;;;3.28;;
45236;SDS011;30973;51.442;3.580;2023-12-04T11:33:36;5.40;;;3.33;;
45236;SDS011;30973;51.442;3.580;2023-12-04T11:38:43;6.93;;;3.50;;
45236;SDS011;30973;51.442;3.580;2023-12-04T11:41:15;5.60;;;3.85;;
45236;SDS011;30973;51.442;3.580;2023-12-04T11:43:50;5.63;;;3.50;;
45236;SDS011;30973;51.442;3.580;2023-12-04T11:46:19;4.30;;;3.22;;
45236;SDS011;30973;51.442;3.580;2023-12-04T11:48:49;5.15;;;3.20;;
45236;SDS011;30973;51.442;3.580;2023-12-04T11:54:03;6.30;;;3.25;;
45236;SDS011;30973;51.442;3.580;2023-12-04T11:56:31;4.57;;;3.15;;
45236;SDS011;30973;51.442;3.580;2023-12-04T11:59:05;5.20;;;3.30;;
45236;SDS011;30973;51.442;3.580;2023-12-04T12:01:36;4.72;;;3.42;;
45236;SDS011;30973;51.442;3.580;2023-12-04T12:04:04;6.45;;;3.88;;
45236;SDS011;30973;51.442;3.580;2023-12-04T12:06:33;6.68;;;3.45;;
45236;SDS011;30973;51.442;3.580;2023-12-04T12:09:01;5.85;;;3.15;;
45236;SDS011;30973;51.442;3.580;2023-12-04T12:11:29;5.00;;;3.30;;
45236;SDS011;30973;51.442;3.580;2023-12-04T12:13:57;6.65;;;3.53;;
45236;SDS011;30973;51.442;3.580;2023-12-04T12:16:24;4.32;;;2.88;;
45236;SDS011;30973;51.442;3.580;2023-12-04T12:18:53;4.90;;;3.40;;
45236;SDS011;30973;51.442;3.580;2023-12-04T12:21:21;5.95;;;3.45;;
45236;SDS011;30973;51.442;3.580;2023-12-04T12:23:49;9.30;;;3.42;;
45236;SDS011;30973;51.442;3.580;2023-12-04T12:26:16;6.18;;;3.58;;
45236;SDS011;30973;51.442;3.580;2023-12-04T12:28:45;3.78;;;2.75;;
45236;SDS011;30973;51.442;3.580;2023-12-04T12:31:12;5.07;;;3.35;;
45236;SDS011;30973;51.442;3.580;2023-12-04T12:33:40;5.03;;;3.35;;
45236;SDS011;30973;51.442;3.580;2023-12-04T12:36:08;4.60;;;3.10;;
45236;SDS011;30973;51.442;3.580;2023-12-04T12:38:36;4.40;;;2.72;;
45236;SDS011;30973;51.442;3.580;2023-12-04T12:41:07;5.00;;;3.20;;
45236;SDS011;30973;51.442;3.580;2023-12-04T12:43:37;5.20;;;3.25;;
45236;SDS011;30973;51.442;3.580;2023-12-04T12:46:04;5.25;;;3.05;;
45236;SDS011;30973;51.442;3.580;2023-12-04T12:48:32;6.53;;;3.80;;
45236;SDS011;30973;51.442;3.580;2023-12-04T12:51:00;5.18;;;3.28;;
45236;SDS011;30973;51.442;3.580;2023-12-04T12:53:32;6.88;;;3.45;;
45236;SDS011;30973;51.442;3.580;2023-12-04T12:56:00;7.82;;;3.33;;
45236;SDS011;30973;51.442;3.580;2023-12-04T12:58:27;7.35;;;3.83;;
45236;SDS011;30973;51.442;3.580;2023-12-04T13:00:55;8.48;;;4.03;;
45236;SDS011;30973;51.442;3.580;2023-12-04T13:03:23;4.78;;;3.70;;
45236;SDS011;30973;51.442;3.580;2023-12-04T13:05:51;5.63;;;4.10;;
45236;SDS011;30973;51.442;3.580;2023-12-04T13:08:19;8.02;;;5.07;;
45236;SDS011;30973;51.442;3.580;2023-12-04T13:10:46;7.20;;;4.45;;
45236;SDS011;30973;51.442;3.580;2023-12-04T13:13:14;7.18;;;4.43;;
45236;SDS011;30973;51.442;3.580;2023-12-04T13:15:42;5.25;;;3.45;;
45236;SDS011;30973;51.442;3.580;2023-12-04T13:18:09;7.10;;;4.00;;
45236;SDS011;30973;51.442;3.580;2023-12-04T13:20:37;7.70;;;4.03;;
45236;SDS011;30973;51.442;3.580;2023-12-04T13:23:04;6.22;;;4.40;;
45236;SDS011;30973;51.442;3.580;2023-12-04T13:25:33;7.07;;;4.40;;
45236;SDS011;30973;51.442;3.580;2023-12-04T13:28:01;6.82;;;4.57;;
45236;SDS011;30973;51.442;3.580;2023-12-04T13:30:28;8.35;;;4.38;;
45236;SDS011;30973;51.442;3.580;2023-12-04T13:32:56;10.48;;;5.63;;
45236;SDS011;30973;51.442;3.580;2023-12-04T13:35:23;5.80;;;3.80;;
45236;SDS011;30973;51.442;3.580;2023-12-04T13:37:51;6.20;;;4.00;;
45236;SDS011;30973;51.442;3.580;2023-12-04T13:40:21;9.15;;;4.50;;
45236;SDS011;30973;51.442;3.580;2023-12-04T13:42:53;7.65;;;4.35;;
45236;SDS011;30973;51.442;3.580;2023-12-04T13:45:39;6.20;;;4.35;;
45236;SDS011;30973;51.442;3.580;2023-12-04T13:48:06;7.15;;;4.70;;
45236;SDS011;30973;51.442;3.580;2023-12-04T13:50:35;5.93;;;3.97;;
45236;SDS011;30973;51.442;3.580;2023-12-04T13:53:02;8.68;;;5.13;;
45236;SDS011;30973;51.442;3.580;2023-12-04T13:55:32;6.43;;;4.50;;
45236;SDS011;30973;51.442;3.580;2023-12-04T13:58:13;7.55;;;4.30;;
45236;SDS011;30973;51.442;3.580;2023-12-04T14:01:01;7.03;;;4.55;;
45236;SDS011;30973;51.442;3.580;2023-12-04T14:03:39;6.53;;;4.43;;
45236;SDS011;30973;51.442;3.580;2023-12-04T14:06:07;6.40;;;4.07;;
45236;SDS011;30973;51.442;3.580;2023-12-04T14:08:36;8.88;;;4.70;;
45236;SDS011;30973;51.442;3.580;2023-12-04T14:11:04;8.57;;;5.00;;
45236;SDS011;30973;51.442;3.580;2023-12-04T14:13:32;8.05;;;4.68;;
45236;SDS011;30973;51.442;3.580;2023-12-04T14:16:00;6.53;;;4.03;;
45236;SDS011;30973;51.442;3.580;2023-12-04T14:18:28;7.60;;;4.70;;
45236;SDS011;30973;51.442;3.580;2023-12-04T14:20:59;6.75;;;4.30;;
45236;SDS011;30973;51.442;3.580;2023-12-04T14:23:26;6.60;;;4.32;;
45236;SDS011;30973;51.442;3.580;2023-12-04T14:25:54;7.13;;;4.95;;
45236;SDS011;30973;51.442;3.580;2023-12-04T14:28:21;7.85;;;4.38;;
45236;SDS011;30973;51.442;3.580;2023-12-04T14:30:58;6.35;;;4.85;;
45236;SDS011;30973;51.442;3.580;2023-12-04T14:33:25;6.43;;;4.35;;
45236;SDS011;30973;51.442;3.580;2023-12-04T14:35:53;6.57;;;4.43;;
45236;SDS011;30973;51.442;3.580;2023-12-04T14:38:21;7.97;;;5.18;;
45236;SDS011;30973;51.442;3.580;2023-12-04T14:40:49;6.22;;;4.63;;
45236;SDS011;30973;51.442;3.580;2023-12-04T14:43:16;6.55;;;4.88;;
45236;SDS011;30973;51.442;3.580;2023-12-04T14:45:44;8.55;;;4.72;;
45236;SDS011;30973;51.442;3.580;2023-12-04T14:48:11;7.60;;;4.85;;
45236;SDS011;30973;51.442;3.580;2023-12-04T14:50:39;6.43;;;4.60;;
45236;SDS011;30973;51.442;3.580;2023-12-04T14:53:06;6.70;;;4.75;;
45236;SDS011;30973;51.442;3.580;2023-12-04T14:55:55;7.03;;;4.43;;
45236;SDS011;30973;51.442;3.580;2023-12-04T14:58:41;7.25;;;4.57;;
45236;SDS011;30973;51.442;3.580;2023-12-04T15:01:12;7.28;;;5.22;;